sensor_id;sensor_type;location;lat;lon;timestamp;P1;durP1;ratioP1;P2;durP2;ratioP2
11228;SDS011;5671;47.936;8.716;2023-12-22T00:02:03;1.67;;;0.80;;
11228;SDS011;5671;47.936;8.716;2023-12-22T00:04:32;0.70;;;0.57;;
11228;SDS011;5671;47.936;8.716;2023-12-22T00:06:58;1.50;;;1.20;;
11228;SDS011;5671;47.936;8.716;2023-12-22T00:09:25;0.43;;;0.40;;
11228;SDS011;5671;47.936;8.716;2023-12-22T00:11:52;0.50;;;0.30;;
11228;SDS011;5671;47.936;8.716;2023-12-22T00:14:19;1.13;;;0.50;;
11228;SDS011;5671;47.936;8.716;2023-12-22T00:16:45;0.20;;;0.20;;
11228;SDS011;5671;47.936;8.716;2023-12-22T00:19:12;1.13;;;0.37;;
11228;SDS011;5671;47.936;8.716;2023-12-22T00:21:40;0.87;;;0.50;;
11228;SDS011;5671;47.936;8.716;2023-12-22T00:24:07;1.90;;;1.17;;
11228;SDS011;5671;47.936;8.716;2023-12-22T00:26:34;0.97;;;0.60;;
11228;SDS011;5671;47.936;8.716;2023-12-22T00:29:01;1.33;;;0.60;;
11228;SDS011;5671;47.936;8.716;2023-12-22T00:31:27;3.60;;;1.50;;
11228;SDS011;5671;47.936;8.716;2023-12-22T00:33:54;2.30;;;0.80;;
11228;SDS011;5671;47.936;8.716;2023-12-22T00:36:21;2.80;;;1.10;;
11228;SDS011;5671;47.936;8.716;2023-12-22T00:38:50;1.03;;;0.70;;
11228;SDS011;5671;47.936;8.716;2023-12-22T00:41:17;4.17;;;1.00;;
11228;SDS011;5671;47.936;8.716;2023-12-22T00:43:44;2.33;;;0.93;;
11228;SDS011;5671;47.936;8.716;2023-12-22T00:46:11;2.03;;;0.70;;
11228;SDS011;5671;47.936;8.716;2023-12-22T00:48:39;2.17;;;0.87;;
11228;SDS011;5671;47.936;8.716;2023-12-22T00:51:06;2.67;;;1.00;;
11228;SDS011;5671;47.936;8.716;2023-12-22T00:53:33;1.80;;;0.90;;
11228;SDS011;5671;47.936;8.716;2023-12-22T00:56:01;3.23;;;1.03;;
11228;SDS011;5671;47.936;8.716;2023-12-22T00:58:28;3.63;;;1.10;;
11228;SDS011;5671;47.936;8.716;2023-12-22T01:00:55;3.20;;;0.80;;
11228;SDS011;5671;47.936;8.716;2023-12-22T01:03:22;3.87;;;1.07;;
11228;SDS011;5671;47.936;8.716;2023-12-22T01:05:49;4.83;;;1.40;;
11228;SDS011;5671;47.936;8.716;2023-12-22T01:08:16;1.60;;;0.80;;
11228;SDS011;5671;47.936;8.716;2023-12-22T01:10:43;3.70;;;1.20;;
11228;SDS011;5671;47.936;8.716;2023-12-22T01:13:11;1.83;;;1.00;;
11228;SDS011;5671;47.936;8.716;2023-12-22T01:15:37;0.93;;;0.77;;
11228;SDS011;5671;47.936;8.716;2023-12-22T01:18:04;4.87;;;1.03;;
11228;SDS011;5671;47.936;8.716;2023-12-22T01:20:31;2.83;;;1.07;;
11228;SDS011;5671;47.936;8.716;2023-12-22T01:22:58;2.47;;;1.23;;
11228;SDS011;5671;47.936;8.716;2023-12-22T01:25:24;3.10;;;1.33;;
11228;SDS011;5671;47.936;8.716;2023-12-22T01:27:51;3.17;;;2.27;;
11228;SDS011;5671;47.936;8.716;2023-12-22T01:30:20;1.77;;;0.83;;
11228;SDS011;5671;47.936;8.716;2023-12-22T01:32:46;0.70;;;0.70;;
11228;SDS011;5671;47.936;8.716;2023-12-22T01:35:13;1.70;;;0.77;;
11228;SDS011;5671;47.936;8.716;2023-12-22T01:37:40;2.07;;;0.70;;
11228;SDS011;5671;47.936;8.716;2023-12-22T01:40:07;1.83;;;0.80;;
11228;SDS011;5671;47.936;8.716;2023-12-22T01:42:35;2.27;;;0.90;;
11228;SDS011;5671;47.936;8.716;2023-12-22T01:45:02;1.60;;;0.70;;
11228;SDS011;5671;47.936;8.716;2023-12-22T01:47:30;1.93;;;0.97;;
11228;SDS011;5671;47.936;8.716;2023-12-22T01:49:57;1.60;;;0.77;;
11228;SDS011;5671;47.936;8.716;2023-12-22T01:52:24;1.83;;;0.70;;
11228;SDS011;5671;47.936;8.716;2023-12-22T01:54:52;1.13;;;0.60;;
11228;SDS011;5671;47.936;8.716;2023-12-22T01:57:20;2.53;;;0.57;;
11228;SDS011;5671;47.936;8.716;2023-12-22T01:59:48;2.10;;;1.07;;
11228;SDS011;5671;47.936;8.716;2023-12-22T02:02:15;1.50;;;0.80;;
11228;SDS011;5671;47.936;8.716;2023-12-22T02:04:44;2.33;;;0.70;;
11228;SDS011;5671;47.936;8.716;2023-12-22T02:07:11;0.70;;;0.40;;
11228;SDS011;5671;47.936;8.716;2023-12-22T02:09:38;1.53;;;0.77;;
11228;SDS011;5671;47.936;8.716;2023-12-22T02:12:05;1.83;;;0.60;;
11228;SDS011;5671;47.936;8.716;2023-12-22T02:14:32;1.23;;;0.40;;
11228;SDS011;5671;47.936;8.716;2023-12-22T02:17:02;0.30;;;0.30;;
11228;SDS011;5671;47.936;8.716;2023-12-22T02:19:40;0.60;;;0.30;;
11228;SDS011;5671;47.936;8.716;2023-12-22T02:22:10;0.83;;;0.53;;
11228;SDS011;5671;47.936;8.716;2023-12-22T02:24:39;0.67;;;0.20;;
11228;SDS011;5671;47.936;8.716;2023-12-22T02:27:10;0.93;;;0.47;;
11228;SDS011;5671;47.936;8.716;2023-12-22T02:29:48;0.30;;;0.20;;
11228;SDS011;5671;47.936;8.716;2023-12-22T02:32:22;0.47;;;0.33;;
11228;SDS011;5671;47.936;8.716;2023-12-22T02:34:52;1.40;;;0.73;;
11228;SDS011;5671;47.936;8.716;2023-12-22T02:37:22;0.27;;;0.23;;
11228;SDS011;5671;47.936;8.716;2023-12-22T02:39:51;1.00;;;0.40;;
11228;SDS011;5671;47.936;8.716;2023-12-22T02:42:19;1.93;;;0.73;;
11228;SDS011;5671;47.936;8.716;2023-12-22T02:44:51;1.37;;;0.60;;
11228;SDS011;5671;47.936;8.716;2023-12-22T02:47:18;1.60;;;0.53;;
11228;SDS011;5671;47.936;8.716;2023-12-22T02:49:45;1.37;;;0.70;;
11228;SDS011;5671;47.936;8.716;2023-12-22T02:52:11;1.67;;;0.70;;
11228;SDS011;5671;47.936;8.716;2023-12-22T02:54:38;1.47;;;0.80;;
11228;SDS011;5671;47.936;8.716;2023-12-22T02:57:07;1.30;;;0.70;;
11228;SDS011;5671;47.936;8.716;2023-12-22T02:59:34;1.77;;;0.80;;
11228;SDS011;5671;47.936;8.716;2023-12-22T03:02:02;0.90;;;0.43;;
11228;SDS011;5671;47.936;8.716;2023-12-22T03:04:29;2.33;;;0.70;;
11228;SDS011;5671;47.936;8.716;2023-12-22T03:06:56;2.03;;;1.00;;
11228;SDS011;5671;47.936;8.716;2023-12-22T03:09:23;1.40;;;0.50;;
11228;SDS011;5671;47.936;8.716;2023-12-22T03:11:50;2.47;;;1.10;;
11228;SDS011;5671;47.936;8.716;2023-12-22T03:14:21;1.07;;;0.60;;
11228;SDS011;5671;47.936;8.716;2023-12-22T03:16:48;2.50;;;0.73;;
11228;SDS011;5671;47.936;8.716;2023-12-22T03:19:15;2.23;;;0.90;;
11228;SDS011;5671;47.936;8.716;2023-12-22T03:21:41;2.63;;;0.90;;
11228;SDS011;5671;47.936;8.716;2023-12-22T03:24:08;2.93;;;1.10;;
11228;SDS011;5671;47.936;8.716;2023-12-22T03:26:35;1.60;;;0.73;;
11228;SDS011;5671;47.936;8.716;2023-12-22T03:29:02;3.93;;;1.03;;
11228;SDS011;5671;47.936;8.716;2023-12-22T03:31:30;2.80;;;0.93;;
11228;SDS011;5671;47.936;8.716;2023-12-22T03:33:57;1.47;;;0.87;;
11228;SDS011;5671;47.936;8.716;2023-12-22T03:36:24;1.70;;;0.87;;
11228;SDS011;5671;47.936;8.716;2023-12-22T03:38:51;1.03;;;0.67;;
11228;SDS011;5671;47.936;8.716;2023-12-22T03:41:18;4.70;;;1.23;;
11228;SDS011;5671;47.936;8.716;2023-12-22T03:43:45;2.43;;;0.80;;
11228;SDS011;5671;47.936;8.716;2023-12-22T03:46:11;2.80;;;1.30;;
11228;SDS011;5671;47.936;8.716;2023-12-22T03:48:39;3.83;;;1.20;;
11228;SDS011;5671;47.936;8.716;2023-12-22T03:51:06;1.47;;;0.80;;
11228;SDS011;5671;47.936;8.716;2023-12-22T03:53:35;2.63;;;0.83;;
11228;SDS011;5671;47.936;8.716;2023-12-22T03:56:02;3.13;;;0.93;;
11228;SDS011;5671;47.936;8.716;2023-12-22T03:58:29;1.93;;;1.17;;
11228;SDS011;5671;47.936;8.716;2023-12-22T04:00:56;3.13;;;0.90;;
11228;SDS011;5671;47.936;8.716;2023-12-22T04:03:23;2.47;;;1.10;;
11228;SDS011;5671;47.936;8.716;2023-12-22T04:05:51;3.83;;;1.13;;
11228;SDS011;5671;47.936;8.716;2023-12-22T04:08:18;2.10;;;1.20;;
11228;SDS011;5671;47.936;8.716;2023-12-22T04:10:45;6.17;;;1.23;;
11228;SDS011;5671;47.936;8.716;2023-12-22T04:13:12;3.60;;;1.10;;
11228;SDS011;5671;47.936;8.716;2023-12-22T04:15:39;3.33;;;1.10;;
11228;SDS011;5671;47.936;8.716;2023-12-22T04:18:06;6.37;;;1.90;;
11228;SDS011;5671;47.936;8.716;2023-12-22T04:20:33;3.50;;;1.03;;
11228;SDS011;5671;47.936;8.716;2023-12-22T04:23:01;3.13;;;1.40;;
11228;SDS011;5671;47.936;8.716;2023-12-22T04:25:28;2.97;;;1.20;;
11228;SDS011;5671;47.936;8.716;2023-12-22T04:27:55;3.70;;;1.33;;
11228;SDS011;5671;47.936;8.716;2023-12-22T04:30:22;3.70;;;1.37;;
11228;SDS011;5671;47.936;8.716;2023-12-22T04:32:48;5.37;;;1.27;;
11228;SDS011;5671;47.936;8.716;2023-12-22T04:35:15;3.73;;;1.47;;
11228;SDS011;5671;47.936;8.716;2023-12-22T04:37:42;4.20;;;1.40;;
11228;SDS011;5671;47.936;8.716;2023-12-22T04:40:11;3.23;;;1.20;;
11228;SDS011;5671;47.936;8.716;2023-12-22T04:42:38;3.90;;;1.43;;
11228;SDS011;5671;47.936;8.716;2023-12-22T04:45:05;3.60;;;1.30;;
11228;SDS011;5671;47.936;8.716;2023-12-22T04:47:32;5.80;;;1.70;;
11228;SDS011;5671;47.936;8.716;2023-12-22T04:49:59;5.53;;;1.67;;
11228;SDS011;5671;47.936;8.716;2023-12-22T04:52:26;3.60;;;1.63;;
11228;SDS011;5671;47.936;8.716;2023-12-22T04:54:53;3.57;;;1.33;;
11228;SDS011;5671;47.936;8.716;2023-12-22T04:57:22;4.53;;;1.30;;
11228;SDS011;5671;47.936;8.716;2023-12-22T04:59:49;4.10;;;1.53;;
11228;SDS011;5671;47.936;8.716;2023-12-22T05:02:16;3.63;;;1.40;;
11228;SDS011;5671;47.936;8.716;2023-12-22T05:04:42;2.93;;;1.33;;
11228;SDS011;5671;47.936;8.716;2023-12-22T05:07:09;3.20;;;1.53;;
11228;SDS011;5671;47.936;8.716;2023-12-22T05:09:36;2.93;;;1.23;;
11228;SDS011;5671;47.936;8.716;2023-12-22T05:12:03;2.80;;;1.23;;
11228;SDS011;5671;47.936;8.716;2023-12-22T05:14:31;3.03;;;1.47;;
11228;SDS011;5671;47.936;8.716;2023-12-22T05:16:58;2.40;;;1.20;;
11228;SDS011;5671;47.936;8.716;2023-12-22T05:19:26;3.30;;;1.50;;
11228;SDS011;5671;47.936;8.716;2023-12-22T05:21:53;2.60;;;0.97;;
11228;SDS011;5671;47.936;8.716;2023-12-22T05:24:21;3.27;;;1.27;;
11228;SDS011;5671;47.936;8.716;2023-12-22T05:26:47;2.33;;;1.10;;
11228;SDS011;5671;47.936;8.716;2023-12-22T05:29:14;2.03;;;1.03;;
11228;SDS011;5671;47.936;8.716;2023-12-22T05:31:42;1.70;;;0.90;;
11228;SDS011;5671;47.936;8.716;2023-12-22T05:34:09;2.10;;;1.07;;
11228;SDS011;5671;47.936;8.716;2023-12-22T05:36:36;1.90;;;0.57;;
11228;SDS011;5671;47.936;8.716;2023-12-22T05:39:03;1.67;;;0.97;;
11228;SDS011;5671;47.936;8.716;2023-12-22T05:41:29;2.13;;;1.00;;
11228;SDS011;5671;47.936;8.716;2023-12-22T05:43:59;5.13;;;1.03;;
11228;SDS011;5671;47.936;8.716;2023-12-22T05:46:26;2.43;;;1.10;;
11228;SDS011;5671;47.936;8.716;2023-12-22T05:48:54;3.37;;;0.83;;
11228;SDS011;5671;47.936;8.716;2023-12-22T05:51:24;2.03;;;1.07;;
11228;SDS011;5671;47.936;8.716;2023-12-22T05:53:51;4.13;;;3.10;;
11228;SDS011;5671;47.936;8.716;2023-12-22T05:56:18;3.50;;;1.47;;
11228;SDS011;5671;47.936;8.716;2023-12-22T05:58:45;3.93;;;1.07;;
11228;SDS011;5671;47.936;8.716;2023-12-22T06:01:15;3.47;;;1.10;;
11228;SDS011;5671;47.936;8.716;2023-12-22T06:03:43;2.93;;;1.30;;
11228;SDS011;5671;47.936;8.716;2023-12-22T06:06:11;5.93;;;1.57;;
11228;SDS011;5671;47.936;8.716;2023-12-22T06:08:38;3.03;;;1.50;;
11228;SDS011;5671;47.936;8.716;2023-12-22T06:11:05;3.23;;;1.40;;
11228;SDS011;5671;47.936;8.716;2023-12-22T06:13:32;4.57;;;2.07;;
11228;SDS011;5671;47.936;8.716;2023-12-22T06:15:59;4.50;;;1.87;;
11228;SDS011;5671;47.936;8.716;2023-12-22T06:18:26;5.20;;;2.27;;
11228;SDS011;5671;47.936;8.716;2023-12-22T06:20:53;3.77;;;2.20;;
11228;SDS011;5671;47.936;8.716;2023-12-22T06:23:21;5.13;;;2.60;;
11228;SDS011;5671;47.936;8.716;2023-12-22T06:25:48;6.57;;;2.30;;
11228;SDS011;5671;47.936;8.716;2023-12-22T06:28:15;4.97;;;1.83;;
11228;SDS011;5671;47.936;8.716;2023-12-22T06:30:43;3.93;;;2.00;;
11228;SDS011;5671;47.936;8.716;2023-12-22T06:33:12;4.83;;;1.80;;
11228;SDS011;5671;47.936;8.716;2023-12-22T06:35:38;4.23;;;1.47;;
11228;SDS011;5671;47.936;8.716;2023-12-22T06:38:06;4.50;;;1.60;;
11228;SDS011;5671;47.936;8.716;2023-12-22T06:40:35;2.93;;;1.53;;
11228;SDS011;5671;47.936;8.716;2023-12-22T06:43:02;4.03;;;1.40;;
11228;SDS011;5671;47.936;8.716;2023-12-22T06:45:29;3.33;;;1.27;;
11228;SDS011;5671;47.936;8.716;2023-12-22T06:47:56;3.53;;;1.80;;
11228;SDS011;5671;47.936;8.716;2023-12-22T06:50:23;3.93;;;1.97;;
11228;SDS011;5671;47.936;8.716;2023-12-22T06:52:50;2.17;;;1.57;;
11228;SDS011;5671;47.936;8.716;2023-12-22T06:55:17;2.03;;;1.23;;
11228;SDS011;5671;47.936;8.716;2023-12-22T06:57:45;2.10;;;1.40;;
11228;SDS011;5671;47.936;8.716;2023-12-22T07:00:12;4.87;;;2.20;;
11228;SDS011;5671;47.936;8.716;2023-12-22T07:02:40;3.37;;;1.40;;
11228;SDS011;5671;47.936;8.716;2023-12-22T07:07:58;3.70;;;1.80;;
11228;SDS011;5671;47.936;8.716;2023-12-22T07:10:25;3.63;;;1.67;;
11228;SDS011;5671;47.936;8.716;2023-12-22T07:12:54;3.27;;;1.57;;
11228;SDS011;5671;47.936;8.716;2023-12-22T07:15:20;3.80;;;1.57;;
11228;SDS011;5671;47.936;8.716;2023-12-22T07:17:47;4.03;;;1.67;;
11228;SDS011;5671;47.936;8.716;2023-12-22T07:20:14;7.47;;;1.73;;
11228;SDS011;5671;47.936;8.716;2023-12-22T07:22:41;4.90;;;2.03;;
11228;SDS011;5671;47.936;8.716;2023-12-22T07:25:10;5.40;;;2.40;;
11228;SDS011;5671;47.936;8.716;2023-12-22T07:27:37;4.83;;;2.50;;
11228;SDS011;5671;47.936;8.716;2023-12-22T07:30:06;6.60;;;2.83;;
11228;SDS011;5671;47.936;8.716;2023-12-22T07:32:33;5.60;;;1.80;;
11228;SDS011;5671;47.936;8.716;2023-12-22T07:35:00;5.27;;;2.30;;
11228;SDS011;5671;47.936;8.716;2023-12-22T07:37:26;5.13;;;1.90;;
11228;SDS011;5671;47.936;8.716;2023-12-22T07:39:53;5.57;;;2.17;;
11228;SDS011;5671;47.936;8.716;2023-12-22T07:42:20;4.23;;;1.50;;
11228;SDS011;5671;47.936;8.716;2023-12-22T07:44:47;4.47;;;2.00;;
11228;SDS011;5671;47.936;8.716;2023-12-22T07:47:15;5.67;;;1.83;;
11228;SDS011;5671;47.936;8.716;2023-12-22T07:49:42;4.90;;;1.50;;
11228;SDS011;5671;47.936;8.716;2023-12-22T07:52:09;4.60;;;1.57;;
11228;SDS011;5671;47.936;8.716;2023-12-22T07:54:36;2.53;;;1.23;;
11228;SDS011;5671;47.936;8.716;2023-12-22T07:57:03;2.87;;;1.07;;
11228;SDS011;5671;47.936;8.716;2023-12-22T07:59:30;5.90;;;1.97;;
11228;SDS011;5671;47.936;8.716;2023-12-22T08:01:57;3.30;;;2.00;;
11228;SDS011;5671;47.936;8.716;2023-12-22T08:04:25;4.00;;;1.80;;
11228;SDS011;5671;47.936;8.716;2023-12-22T08:06:52;3.70;;;1.60;;
11228;SDS011;5671;47.936;8.716;2023-12-22T08:09:19;3.80;;;1.50;;
11228;SDS011;5671;47.936;8.716;2023-12-22T08:11:47;4.20;;;1.70;;
11228;SDS011;5671;47.936;8.716;2023-12-22T08:14:17;6.20;;;2.30;;
11228;SDS011;5671;47.936;8.716;2023-12-22T08:16:44;3.73;;;2.10;;
11228;SDS011;5671;47.936;8.716;2023-12-22T08:19:11;5.07;;;2.40;;
11228;SDS011;5671;47.936;8.716;2023-12-22T08:21:39;4.60;;;2.47;;
11228;SDS011;5671;47.936;8.716;2023-12-22T08:24:08;6.67;;;2.40;;
11228;SDS011;5671;47.936;8.716;2023-12-22T08:26:36;4.33;;;2.53;;
11228;SDS011;5671;47.936;8.716;2023-12-22T08:29:03;4.17;;;1.93;;
11228;SDS011;5671;47.936;8.716;2023-12-22T08:31:29;4.57;;;1.70;;
11228;SDS011;5671;47.936;8.716;2023-12-22T08:33:56;3.03;;;1.57;;
11228;SDS011;5671;47.936;8.716;2023-12-22T08:36:23;3.93;;;1.20;;
11228;SDS011;5671;47.936;8.716;2023-12-22T08:38:51;2.30;;;1.27;;
11228;SDS011;5671;47.936;8.716;2023-12-22T08:41:18;4.70;;;2.50;;
11228;SDS011;5671;47.936;8.716;2023-12-22T08:43:45;2.33;;;1.10;;
11228;SDS011;5671;47.936;8.716;2023-12-22T08:46:12;1.73;;;1.20;;
11228;SDS011;5671;47.936;8.716;2023-12-22T08:48:39;2.70;;;1.20;;
11228;SDS011;5671;47.936;8.716;2023-12-22T08:51:05;1.83;;;1.20;;
11228;SDS011;5671;47.936;8.716;2023-12-22T08:53:33;2.03;;;1.00;;
11228;SDS011;5671;47.936;8.716;2023-12-22T08:56:04;2.43;;;1.03;;
11228;SDS011;5671;47.936;8.716;2023-12-22T08:58:32;2.13;;;0.80;;
11228;SDS011;5671;47.936;8.716;2023-12-22T09:00:59;2.60;;;1.00;;
11228;SDS011;5671;47.936;8.716;2023-12-22T09:03:26;2.70;;;1.00;;
11228;SDS011;5671;47.936;8.716;2023-12-22T09:05:53;2.27;;;1.10;;
11228;SDS011;5671;47.936;8.716;2023-12-22T09:08:20;2.13;;;1.30;;
11228;SDS011;5671;47.936;8.716;2023-12-22T09:10:47;2.70;;;1.00;;
11228;SDS011;5671;47.936;8.716;2023-12-22T09:13:16;3.10;;;1.30;;
11228;SDS011;5671;47.936;8.716;2023-12-22T09:15:43;3.90;;;1.40;;
11228;SDS011;5671;47.936;8.716;2023-12-22T09:18:11;3.17;;;1.40;;
11228;SDS011;5671;47.936;8.716;2023-12-22T09:20:39;5.47;;;2.60;;
11228;SDS011;5671;47.936;8.716;2023-12-22T09:23:06;3.93;;;1.90;;
11228;SDS011;5671;47.936;8.716;2023-12-22T09:25:35;3.00;;;1.13;;
11228;SDS011;5671;47.936;8.716;2023-12-22T09:28:02;3.40;;;1.70;;
11228;SDS011;5671;47.936;8.716;2023-12-22T09:30:30;3.63;;;1.73;;
11228;SDS011;5671;47.936;8.716;2023-12-22T09:32:57;4.53;;;1.73;;
11228;SDS011;5671;47.936;8.716;2023-12-22T09:35:24;4.37;;;1.83;;
11228;SDS011;5671;47.936;8.716;2023-12-22T09:37:51;6.93;;;2.07;;
11228;SDS011;5671;47.936;8.716;2023-12-22T09:40:19;4.13;;;2.00;;
11228;SDS011;5671;47.936;8.716;2023-12-22T09:42:47;3.93;;;1.90;;
11228;SDS011;5671;47.936;8.716;2023-12-22T09:45:16;5.50;;;2.03;;
11228;SDS011;5671;47.936;8.716;2023-12-22T09:47:45;2.90;;;0.93;;
11228;SDS011;5671;47.936;8.716;2023-12-22T09:50:13;4.70;;;1.83;;
11228;SDS011;5671;47.936;8.716;2023-12-22T09:52:41;5.13;;;1.60;;
11228;SDS011;5671;47.936;8.716;2023-12-22T09:55:10;3.30;;;1.47;;
11228;SDS011;5671;47.936;8.716;2023-12-22T09:57:38;6.73;;;2.33;;
11228;SDS011;5671;47.936;8.716;2023-12-22T10:00:06;3.50;;;1.30;;
11228;SDS011;5671;47.936;8.716;2023-12-22T10:02:35;2.80;;;1.50;;
11228;SDS011;5671;47.936;8.716;2023-12-22T10:05:04;4.07;;;1.50;;
11228;SDS011;5671;47.936;8.716;2023-12-22T10:07:33;6.30;;;2.40;;
11228;SDS011;5671;47.936;8.716;2023-12-22T10:10:01;2.77;;;1.73;;
11228;SDS011;5671;47.936;8.716;2023-12-22T10:12:29;2.90;;;1.37;;
11228;SDS011;5671;47.936;8.716;2023-12-22T10:14:59;3.57;;;1.40;;
11228;SDS011;5671;47.936;8.716;2023-12-22T10:17:28;6.83;;;2.30;;
11228;SDS011;5671;47.936;8.716;2023-12-22T10:19:56;3.30;;;1.60;;
11228;SDS011;5671;47.936;8.716;2023-12-22T10:22:24;4.07;;;1.60;;
11228;SDS011;5671;47.936;8.716;2023-12-22T10:24:51;3.63;;;1.47;;
11228;SDS011;5671;47.936;8.716;2023-12-22T10:27:18;3.63;;;1.93;;
11228;SDS011;5671;47.936;8.716;2023-12-22T10:29:47;5.40;;;1.60;;
11228;SDS011;5671;47.936;8.716;2023-12-22T10:32:15;4.40;;;1.60;;
11228;SDS011;5671;47.936;8.716;2023-12-22T10:34:42;9.07;;;2.00;;
11228;SDS011;5671;47.936;8.716;2023-12-22T10:37:09;5.83;;;1.97;;
11228;SDS011;5671;47.936;8.716;2023-12-22T10:39:39;3.83;;;1.43;;
11228;SDS011;5671;47.936;8.716;2023-12-22T10:42:06;4.00;;;1.70;;
11228;SDS011;5671;47.936;8.716;2023-12-22T10:44:33;3.93;;;1.57;;
11228;SDS011;5671;47.936;8.716;2023-12-22T10:47:00;4.57;;;1.90;;
11228;SDS011;5671;47.936;8.716;2023-12-22T10:49:28;5.10;;;1.77;;
11228;SDS011;5671;47.936;8.716;2023-12-22T10:51:59;7.70;;;2.10;;
11228;SDS011;5671;47.936;8.716;2023-12-22T10:54:25;5.87;;;2.13;;
11228;SDS011;5671;47.936;8.716;2023-12-22T10:56:55;8.23;;;2.70;;
11228;SDS011;5671;47.936;8.716;2023-12-22T10:59:24;14.03;;;5.60;;
11228;SDS011;5671;47.936;8.716;2023-12-22T11:01:56;6.03;;;3.10;;
11228;SDS011;5671;47.936;8.716;2023-12-22T11:04:25;7.67;;;3.33;;
11228;SDS011;5671;47.936;8.716;2023-12-22T11:06:57;7.90;;;2.00;;
11228;SDS011;5671;47.936;8.716;2023-12-22T11:09:24;7.40;;;3.20;;
11228;SDS011;5671;47.936;8.716;2023-12-22T11:11:59;6.10;;;2.40;;
11228;SDS011;5671;47.936;8.716;2023-12-22T11:14:28;5.40;;;2.10;;
11228;SDS011;5671;47.936;8.716;2023-12-22T11:16:57;7.07;;;1.67;;
11228;SDS011;5671;47.936;8.716;2023-12-22T11:19:26;2.73;;;1.40;;
11228;SDS011;5671;47.936;8.716;2023-12-22T11:21:54;3.70;;;1.80;;
11228;SDS011;5671;47.936;8.716;2023-12-22T11:24:24;6.47;;;2.00;;
11228;SDS011;5671;47.936;8.716;2023-12-22T11:26:54;4.87;;;1.63;;
11228;SDS011;5671;47.936;8.716;2023-12-22T11:29:25;3.87;;;1.67;;
11228;SDS011;5671;47.936;8.716;2023-12-22T11:31:52;3.23;;;1.40;;
